Time;durP1;ratioP1;P1;durP2;ratioP2;P2;SDS_P1;SDS_P2;PMS_P1;PMS_P2;Temp;Humidity;BMP_temperature;BMP_pressure;BME280_temperature;BME280_humidity;BME280_pressure;Samples;Min_cycle;Max_cycle;Signal;HPM_P1;HPM_P2
2023/06/19 00:01:37;;;;;;;24.42;4.60;;;39.00;23.00;;;;;;5097312;28;20036;-66
2023/06/19 00:04:04;;;;;;;25.95;5.00;;;38.90;23.10;;;;;;5099772;28;20050;-67
2023/06/19 00:06:30;;;;;;;122.25;8.93;;;38.70;22.90;;;;;;5104526;28;20032;-65
2023/06/19 00:08:56;;;;;;;273.45;18.48;;;38.60;23.10;;;;;;5102126;28;20043;-69
2023/06/19 00:11:23;;;;;;;27.88;3.88;;;38.70;23.00;;;;;;5104032;28;20038;-68
2023/06/19 00:13:50;;;;;;;117.28;9.60;;;38.60;23.10;;;;;;5107385;28;20112;-67
2023/06/19 00:16:17;;;;;;;41.00;5.00;;;38.60;23.20;;;;;;5100228;28;20031;-66
2023/06/19 00:18:44;;;;;;;36.33;3.85;;;38.50;23.30;;;;;;5107596;28;20031;-67
2023/06/19 00:21:10;;;;;;;28.60;4.35;;;38.30;23.50;;;;;;5103377;28;20062;-63
2023/06/19 00:23:37;;;;;;;27.17;3.90;;;38.20;23.70;;;;;;5104932;28;20035;-62
2023/06/19 00:26:03;;;;;;;24.65;4.05;;;38.10;23.40;;;;;;5102927;28;20406;-64
2023/06/19 00:28:31;;;;;;;17.98;3.15;;;38.10;23.50;;;;;;5104278;28;20714;-65
2023/06/19 00:30:58;;;;;;;24.52;3.63;;;38.10;23.40;;;;;;5099424;28;20420;-64
2023/06/19 00:33:24;;;;;;;14.52;2.60;;;38.10;23.40;;;;;;5102811;28;20098;-67
2023/06/19 00:35:51;;;;;;;14.63;3.55;;;38.00;23.40;;;;;;5103201;28;20020;-65
2023/06/19 00:38:17;;;;;;;25.70;4.00;;;38.00;23.50;;;;;;5099970;28;20016;-66
2023/06/19 00:40:44;;;;;;;14.48;3.40;;;37.90;23.60;;;;;;5100814;28;20089;-66
2023/06/19 00:43:10;;;;;;;19.05;4.28;;;37.80;23.70;;;;;;5099046;28;20023;-66
2023/06/19 00:45:37;;;;;;;29.77;3.53;;;37.70;23.30;;;;;;5104201;28;20025;-68
2023/06/19 00:48:04;;;;;;;21.42;2.90;;;37.60;23.30;;;;;;5083180;28;20077;-65
2023/06/19 00:50:31;;;;;;;14.15;3.35;;;37.50;23.50;;;;;;5095761;28;20119;-66
2023/06/19 00:52:59;;;;;;;15.05;3.17;;;37.50;23.70;;;;;;5094774;28;20028;-61
2023/06/19 00:55:29;;;;;;;32.30;3.88;;;37.50;23.70;;;;;;5099341;28;20099;-65
2023/06/19 00:57:56;;;;;;;20.48;3.60;;;37.40;23.80;;;;;;5105986;28;20070;-62
2023/06/19 01:00:23;;;;;;;16.08;3.03;;;37.40;23.80;;;;;;5076261;28;20028;-63
2023/06/19 01:02:49;;;;;;;32.42;4.28;;;37.20;24.00;;;;;;5103161;28;20028;-66
2023/06/19 01:05:16;;;;;;;18.10;3.65;;;37.30;24.20;;;;;;5104189;28;20028;-64
2023/06/19 01:08:00;;;;;;;21.35;3.78;;;37.10;24.10;;;;;;5097627;28;20035;-67
2023/06/19 01:10:36;;;;;;;25.25;4.05;;;37.10;24.20;;;;;;5098115;28;20514;-64
2023/06/19 01:13:08;;;;;;;16.75;3.97;;;36.90;24.30;;;;;;5102960;28;20451;-67
2023/06/19 01:15:37;;;;;;;21.33;3.65;;;36.90;24.40;;;;;;5098615;28;20026;-64
2023/06/19 01:18:04;;;;;;;32.55;3.85;;;36.80;24.50;;;;;;5081675;28;20060;-63
2023/06/19 01:20:31;;;;;;;17.90;3.28;;;36.70;24.80;;;;;;5098343;28;20030;-65
2023/06/19 01:22:57;;;;;;;21.33;3.30;;;36.60;24.60;;;;;;5096927;28;20024;-66
2023/06/19 01:25:24;;;;;;;21.08;3.80;;;36.50;24.70;;;;;;5103163;28;20024;-66
2023/06/19 01:27:51;;;;;;;30.95;3.75;;;36.40;24.70;;;;;;5103433;28;20564;-66
2023/06/19 01:30:18;;;;;;;26.75;4.45;;;36.40;24.70;;;;;;5095029;28;20081;-67
2023/06/19 01:33:12;;;;;;;20.58;3.75;;;36.30;24.70;;;;;;5099600;28;20045;-65
2023/06/19 01:35:40;;;;;;;32.10;3.53;;;36.20;25.40;;;;;;5097567;28;20039;-65
2023/06/19 01:38:08;;;;;;;12.77;2.80;;;36.20;24.60;;;;;;5099715;28;20030;-66
2023/06/19 01:40:35;;;;;;;14.02;3.33;;;36.10;24.50;;;;;;5102041;28;20503;-64
2023/06/19 01:43:04;;;;;;;14.07;3.22;;;36.00;24.90;;;;;;5105021;28;20034;-64
2023/06/19 01:45:31;;;;;;;13.38;3.10;;;35.90;25.10;;;;;;5098521;28;20044;-65
2023/06/19 01:47:58;;;;;;;14.23;3.42;;;35.90;25.00;;;;;;5099323;28;20058;-62
2023/06/19 01:50:25;;;;;;;19.20;4.65;;;35.80;25.20;;;;;;5100351;28;20039;-65
2023/06/19 01:52:52;;;;;;;24.40;4.68;;;35.70;25.90;;;;;;5099726;28;20033;-66
2023/06/19 01:55:18;;;;;;;57.42;6.10;;;35.60;25.80;;;;;;5101908;28;20040;-64
2023/06/19 01:57:47;;;;;;;25.15;3.78;;;35.40;25.50;;;;;;5098082;28;20550;-67
2023/06/19 02:00:14;;;;;;;40.78;5.20;;;35.40;25.80;;;;;;5101375;28;20126;-62
2023/06/19 02:02:41;;;;;;;24.58;4.15;;;35.40;25.60;;;;;;5100746;28;20543;-68
2023/06/19 02:05:07;;;;;;;110.40;8.02;;;35.30;25.70;;;;;;5095417;28;20561;-67
2023/06/19 02:07:34;;;;;;;22.27;4.40;;;35.20;26.10;;;;;;5101481;28;20060;-69
2023/06/19 02:10:00;;;;;;;25.65;3.97;;;35.00;26.30;;;;;;5100106;28;20058;-65
2023/06/19 02:12:26;;;;;;;21.25;8.73;;;34.80;26.40;;;;;;5101698;28;20116;-66
2023/06/19 02:14:53;;;;;;;47.45;6.90;;;34.70;26.60;;;;;;5100283;28;20127;-63
2023/06/19 02:17:19;;;;;;;32.25;5.70;;;34.70;26.70;;;;;;5102795;28;20043;-63
2023/06/19 02:19:46;;;;;;;23.35;4.30;;;34.60;26.90;;;;;;5102141;28;20055;-62
2023/06/19 02:22:12;;;;;;;18.35;4.55;;;34.50;27.70;;;;;;5100110;28;20074;-62
2023/06/19 02:24:39;;;;;;;33.70;5.03;;;34.40;28.50;;;;;;5099859;28;20113;-60
2023/06/19 02:27:06;;;;;;;29.58;4.70;;;34.30;28.40;;;;;;5100823;28;20054;-61
2023/06/19 02:29:35;;;;;;;14.63;3.83;;;34.10;28.30;;;;;;5101149;28;20127;-63
2023/06/19 02:32:02;;;;;;;18.77;4.85;;;33.90;28.20;;;;;;5097245;28;20147;-62
2023/06/19 02:34:29;;;;;;;29.38;5.07;;;33.80;28.50;;;;;;5097799;28;20052;-65
2023/06/19 02:36:55;;;;;;;33.00;4.10;;;33.70;28.10;;;;;;5095741;28;20051;-63
2023/06/19 02:39:22;;;;;;;23.42;4.72;;;33.70;28.40;;;;;;5094747;28;20055;-60
2023/06/19 02:41:49;;;;;;;27.90;4.38;;;33.60;28.40;;;;;;5102203;28;20129;-63
2023/06/19 02:44:15;;;;;;;25.10;4.35;;;33.60;28.30;;;;;;5098978;28;20141;-64
2023/06/19 02:46:42;;;;;;;16.30;4.40;;;33.50;28.30;;;;;;5101461;28;20076;-65
2023/06/19 02:49:08;;;;;;;27.00;4.07;;;33.40;28.40;;;;;;5099264;28;20046;-64
2023/06/19 02:51:35;;;;;;;29.35;5.00;;;33.30;28.40;;;;;;5099979;28;20057;-64
2023/06/19 02:54:01;;;;;;;11.80;3.28;;;33.20;28.50;;;;;;5099047;28;20052;-64
2023/06/19 02:56:28;;;;;;;13.55;3.45;;;33.30;28.50;;;;;;5100103;28;20615;-63
2023/06/19 02:58:55;;;;;;;13.68;3.53;;;33.10;28.50;;;;;;5102093;28;20105;-61
2023/06/19 03:01:21;;;;;;;15.05;3.67;;;33.10;28.60;;;;;;5099687;28;20070;-62
2023/06/19 03:03:47;;;;;;;9.13;3.30;;;33.00;28.70;;;;;;5098382;28;20126;-63
2023/06/19 03:06:14;;;;;;;17.83;5.13;;;32.90;28.40;;;;;;5096535;28;20062;-63
2023/06/19 03:08:40;;;;;;;16.10;6.85;;;32.80;28.40;;;;;;5100434;28;20065;-61
2023/06/19 03:11:07;;;;;;;18.88;8.00;;;32.80;28.70;;;;;;5103417;28;20051;-62
2023/06/19 03:13:50;;;;;;;20.00;13.73;;;32.80;29.00;;;;;;5100939;28;20042;-63
2023/06/19 03:16:16;;;;;;;20.95;10.55;;;32.80;29.20;;;;;;5096668;28;20096;-62
2023/06/19 03:18:44;;;;;;;15.90;7.85;;;32.70;29.00;;;;;;5103996;28;20056;-63
2023/06/19 03:21:12;;;;;;;10.45;5.90;;;32.60;29.00;;;;;;5097783;28;20052;-63
2023/06/19 03:23:38;;;;;;;16.42;6.57;;;32.60;28.80;;;;;;5100148;28;20132;-61
2023/06/19 03:26:04;;;;;;;16.90;4.80;;;32.60;28.70;;;;;;5096528;28;20412;-61
2023/06/19 03:28:31;;;;;;;12.07;3.20;;;32.50;28.70;;;;;;5089422;28;20086;-62
2023/06/19 03:30:57;;;;;;;12.63;3.90;;;32.50;28.70;;;;;;5092733;28;20050;-62
2023/06/19 03:33:24;;;;;;;20.67;3.55;;;32.40;28.50;;;;;;5092137;28;20183;-62
2023/06/19 03:35:50;;;;;;;10.70;3.65;;;32.40;28.50;;;;;;5097342;28;20038;-61
2023/06/19 03:38:16;;;;;;;15.70;3.75;;;32.30;28.00;;;;;;5095477;28;20051;-61
2023/06/19 03:40:43;;;;;;;7.47;3.33;;;32.40;27.90;;;;;;5091643;28;20146;-62
2023/06/19 03:43:10;;;;;;;10.02;2.70;;;32.40;27.60;;;;;;5092407;28;20052;-63
2023/06/19 03:45:37;;;;;;;12.70;3.83;;;32.40;27.60;;;;;;5092199;28;20058;-59
2023/06/19 03:48:04;;;;;;;20.83;4.40;;;32.40;27.40;;;;;;5089421;28;20201;-62
2023/06/19 03:50:30;;;;;;;17.70;4.70;;;32.40;27.50;;;;;;5091487;28;20068;-64
2023/06/19 03:52:56;;;;;;;17.75;4.82;;;32.40;27.60;;;;;;5091526;28;20076;-62
2023/06/19 03:55:23;;;;;;;15.80;4.35;;;32.40;27.80;;;;;;5094427;28;20038;-62
2023/06/19 03:57:49;;;;;;;14.57;5.05;;;32.40;29.50;;;;;;5091030;28;20067;-64
2023/06/19 04:00:18;;;;;;;16.05;6.28;;;32.10;30.00;;;;;;5091230;28;20052;-61
2023/06/19 04:02:47;;;;;;;11.68;4.65;;;32.00;30.20;;;;;;5090207;28;20057;-63
2023/06/19 04:05:17;;;;;;;9.30;4.10;;;32.00;29.90;;;;;;5093955;28;20097;-61
2023/06/19 04:07:44;;;;;;;16.73;4.05;;;31.90;30.00;;;;;;5093038;28;20065;-64
2023/06/19 04:10:13;;;;;;;21.45;3.17;;;31.80;30.00;;;;;;5093306;28;20646;-63
2023/06/19 04:12:40;;;;;;;13.75;3.13;;;31.80;29.90;;;;;;5093117;28;20189;-62
2023/06/19 04:15:08;;;;;;;13.25;2.75;;;31.80;29.60;;;;;;5090298;28;20397;-65
2023/06/19 04:17:34;;;;;;;17.45;3.28;;;31.80;29.40;;;;;;5091579;28;20109;-65
2023/06/19 04:20:00;;;;;;;8.02;2.88;;;31.90;29.40;;;;;;5093992;28;20076;-68
2023/06/19 04:22:27;;;;;;;14.15;3.15;;;31.80;29.40;;;;;;5096426;28;20118;-68
2023/06/19 04:24:53;;;;;;;15.93;2.60;;;31.80;29.50;;;;;;5090496;28;20056;-66
2023/06/19 04:27:20;;;;;;;11.88;2.90;;;31.80;29.80;;;;;;5094400;28;20139;-64
2023/06/19 04:29:46;;;;;;;21.23;2.83;;;31.80;30.00;;;;;;5092249;28;20056;-64
2023/06/19 04:32:13;;;;;;;6.85;3.70;;;31.80;29.90;;;;;;5091964;28;20079;-68
2023/06/19 04:34:39;;;;;;;12.40;3.80;;;31.80;31.30;;;;;;5092847;28;20105;-64
2023/06/19 04:37:06;;;;;;;10.70;3.33;;;31.60;31.60;;;;;;5077385;28;20078;-63
2023/06/19 04:39:32;;;;;;;4.63;2.63;;;31.50;31.30;;;;;;5092073;28;20483;-62
2023/06/19 04:41:59;;;;;;;8.50;2.63;;;31.50;31.40;;;;;;5097881;28;20048;-62
2023/06/19 04:44:25;;;;;;;9.55;2.78;;;31.40;31.50;;;;;;5097520;28;20493;-62
2023/06/19 04:47:00;;;;;;;14.10;3.13;;;31.30;31.70;;;;;;5095878;28;20062;-64
2023/06/19 04:49:32;;;;;;;11.82;2.80;;;31.30;31.80;;;;;;5093355;28;20105;-63
2023/06/19 04:51:58;;;;;;;10.07;3.42;;;31.30;32.10;;;;;;5096410;28;20140;-63
2023/06/19 04:54:27;;;;;;;10.13;2.85;;;31.20;32.20;;;;;;5095495;28;20051;-63
2023/06/19 04:56:54;;;;;;;7.28;2.92;;;31.10;32.20;;;;;;5094189;28;20076;-65
2023/06/19 04:59:21;;;;;;;12.35;3.20;;;31.10;32.50;;;;;;5092645;28;20082;-63
2023/06/19 05:01:47;;;;;;;11.02;3.03;;;31.00;32.50;;;;;;5095000;28;20525;-64
2023/06/19 05:04:14;;;;;;;9.32;2.90;;;31.00;32.50;;;;;;5095913;28;20115;-64
2023/06/19 05:06:42;;;;;;;8.23;2.88;;;30.90;32.40;;;;;;5096349;28;20076;-64
2023/06/19 05:09:09;;;;;;;10.45;3.42;;;30.90;32.70;;;;;;5105308;28;20058;-65
2023/06/19 05:11:35;;;;;;;10.05;3.00;;;30.80;32.50;;;;;;5092828;28;20085;-62
2023/06/19 05:14:01;;;;;;;10.93;4.85;;;30.80;32.50;;;;;;5094950;28;20391;-66
2023/06/19 05:16:28;;;;;;;4.93;2.38;;;30.70;32.20;;;;;;5097573;28;20068;-64
2023/06/19 05:18:54;;;;;;;9.77;3.15;;;30.70;32.30;;;;;;5096511;28;20061;-64
2023/06/19 05:21:21;;;;;;;8.35;3.00;;;30.70;32.30;;;;;;5104071;28;20046;-65
2023/06/19 05:23:50;;;;;;;8.82;3.22;;;30.70;32.20;;;;;;5093555;28;20183;-65
2023/06/19 05:26:17;;;;;;;9.50;3.42;;;30.60;32.50;;;;;;5095015;28;20084;-64
2023/06/19 05:28:43;;;;;;;9.13;3.50;;;30.50;32.70;;;;;;5093175;28;20215;-66
2023/06/19 05:31:10;;;;;;;7.65;3.38;;;30.50;32.90;;;;;;5096798;28;20074;-66
2023/06/19 05:33:37;;;;;;;6.55;2.88;;;30.40;32.90;;;;;;5099337;28;20056;-65
2023/06/19 05:36:03;;;;;;;10.65;3.40;;;30.40;33.00;;;;;;5100446;28;20503;-63
2023/06/19 05:38:30;;;;;;;4.68;3.47;;;30.40;33.30;;;;;;5095875;28;20064;-65
2023/06/19 05:40:59;;;;;;;9.30;3.17;;;30.30;33.40;;;;;;5095770;28;20065;-65
2023/06/19 05:43:26;;;;;;;7.18;2.95;;;30.30;33.50;;;;;;5100107;28;20419;-64
2023/06/19 05:45:56;;;;;;;7.07;3.33;;;30.30;32.80;;;;;;5092258;28;20051;-65
2023/06/19 05:48:22;;;;;;;9.25;3.15;;;30.30;33.30;;;;;;5094676;28;20085;-62
2023/06/19 05:50:49;;;;;;;9.27;2.95;;;30.20;32.90;;;;;;5093951;28;20492;-65
2023/06/19 05:53:15;;;;;;;10.77;3.92;;;30.20;32.60;;;;;;5093213;28;20054;-64
2023/06/19 05:55:42;;;;;;;12.15;8.30;;;30.30;31.90;;;;;;5095729;28;20174;-63
2023/06/19 05:58:08;;;;;;;12.70;7.90;;;30.30;32.50;;;;;;5101760;28;20079;-63
2023/06/19 06:00:35;;;;;;;10.30;3.88;;;30.30;33.00;;;;;;5081532;28;20414;-65
2023/06/19 06:03:02;;;;;;;10.40;3.85;;;30.20;33.80;;;;;;5077658;28;20333;-65
2023/06/19 06:05:29;;;;;;;11.77;3.67;;;30.00;35.10;;;;;;5092262;28;20079;-64
2023/06/19 06:07:56;;;;;;;9.15;2.92;;;30.00;34.40;;;;;;5093345;28;20066;-63
2023/06/19 06:10:25;;;;;;;8.93;3.10;;;29.90;33.90;;;;;;5061527;28;20122;-65
2023/06/19 06:12:52;;;;;;;9.23;3.65;;;29.90;34.10;;;;;;5093115;28;20053;-65
2023/06/19 06:15:18;;;;;;;5.78;3.30;;;29.90;34.20;;;;;;5093326;28;20082;-64
2023/06/19 06:17:45;;;;;;;9.93;3.15;;;29.90;34.30;;;;;;5093946;28;20171;-63
2023/06/19 06:20:12;;;;;;;10.43;2.90;;;29.80;34.50;;;;;;5095028;28;20054;-66
2023/06/19 06:22:42;;;;;;;8.48;3.05;;;29.90;34.50;;;;;;5097418;28;20075;-65
2023/06/19 06:25:12;;;;;;;5.32;2.30;;;29.80;34.60;;;;;;5093301;28;20060;-64
2023/06/19 06:27:39;;;;;;;6.90;2.95;;;29.70;35.00;;;;;;5095218;28;20104;-63
2023/06/19 06:30:06;;;;;;;11.77;3.00;;;29.70;34.90;;;;;;5092659;28;20100;-65
2023/06/19 06:32:32;;;;;;;7.20;2.97;;;29.60;35.30;;;;;;5097442;28;20518;-68
2023/06/19 06:34:59;;;;;;;15.02;2.97;;;29.50;35.50;;;;;;5093531;28;20535;-66
2023/06/19 06:37:26;;;;;;;8.60;3.10;;;29.50;35.60;;;;;;5093298;28;20426;-65
2023/06/19 06:39:52;;;;;;;12.63;3.03;;;29.40;35.90;;;;;;5092916;28;20160;-64
2023/06/19 06:42:19;;;;;;;10.52;2.72;;;29.40;36.20;;;;;;5092989;28;20592;-65
2023/06/19 06:44:46;;;;;;;4.43;2.70;;;29.30;36.30;;;;;;5092718;28;20133;-64
2023/06/19 06:47:12;;;;;;;7.18;3.10;;;29.20;36.50;;;;;;5093893;28;20089;-63
2023/06/19 06:49:38;;;;;;;4.35;2.90;;;29.10;36.80;;;;;;5089988;28;20594;-65
2023/06/19 06:52:06;;;;;;;6.25;2.60;;;29.10;37.00;;;;;;5098220;28;20149;-64
2023/06/19 06:54:32;;;;;;;15.55;2.88;;;29.00;37.10;;;;;;5095189;28;20427;-70
2023/06/19 06:56:59;;;;;;;17.20;3.42;;;29.00;37.30;;;;;;5092861;28;20074;-66
2023/06/19 06:59:29;;;;;;;7.40;2.50;;;29.00;37.40;;;;;;5092454;28;20068;-67
2023/06/19 07:01:56;;;;;;;6.35;2.88;;;29.00;37.40;;;;;;5093524;28;20486;-65
2023/06/19 07:04:23;;;;;;;6.43;2.90;;;29.00;37.40;;;;;;5091134;28;20098;-66
2023/06/19 07:06:50;;;;;;;7.75;2.95;;;29.00;37.50;;;;;;5092287;28;20095;-67
2023/06/19 07:09:17;;;;;;;8.25;2.60;;;29.00;37.50;;;;;;5091925;28;20096;-66
2023/06/19 07:11:43;;;;;;;6.18;2.67;;;28.90;37.70;;;;;;5099758;28;20064;-64
2023/06/19 07:14:10;;;;;;;5.93;2.45;;;29.00;37.50;;;;;;5092803;28;20070;-64
2023/06/19 07:16:36;;;;;;;10.18;2.55;;;29.00;37.70;;;;;;5097260;28;20436;-63
2023/06/19 07:19:03;;;;;;;7.50;2.60;;;29.00;37.60;;;;;;5075825;28;20080;-65
2023/06/19 07:21:30;;;;;;;3.50;2.47;;;29.10;37.50;;;;;;5090406;28;20430;-64
2023/06/19 07:23:59;;;;;;;9.43;2.83;;;29.00;37.50;;;;;;5092492;28;20511;-65
2023/06/19 07:26:25;;;;;;;8.95;2.50;;;29.10;37.50;;;;;;5093614;28;20183;-64
2023/06/19 07:28:52;;;;;;;11.75;3.70;;;29.10;37.70;;;;;;5098724;28;20183;-65
2023/06/19 07:31:18;;;;;;;5.72;2.90;;;29.10;37.80;;;;;;5090887;28;20063;-65
2023/06/19 07:33:45;;;;;;;4.72;2.40;;;29.00;38.10;;;;;;5093430;28;20495;-64
2023/06/19 07:36:13;;;;;;;9.82;2.58;;;29.00;38.20;;;;;;5091945;28;20086;-64
2023/06/19 07:38:43;;;;;;;8.57;2.42;;;29.00;38.30;;;;;;5093517;28;20507;-63
2023/06/19 07:41:10;;;;;;;5.43;2.70;;;29.00;38.30;;;;;;5096989;28;20073;-65
2023/06/19 07:43:38;;;;;;;5.90;2.47;;;28.90;38.70;;;;;;5080832;28;20415;-63
2023/06/19 07:46:05;;;;;;;7.03;2.70;;;28.90;38.30;;;;;;5093463;28;20132;-63
2023/06/19 07:48:31;;;;;;;4.93;2.70;;;28.80;38.40;;;;;;5093495;28;20151;-64
2023/06/19 07:50:58;;;;;;;7.72;2.60;;;28.70;38.40;;;;;;5091162;28;20092;-63
2023/06/19 07:53:24;;;;;;;7.72;2.58;;;28.70;38.70;;;;;;5092294;28;20429;-63
2023/06/19 07:55:50;;;;;;;4.25;2.40;;;28.80;38.80;;;;;;5091025;28;20513;-65
2023/06/19 07:58:18;;;;;;;5.78;2.70;;;28.70;38.70;;;;;;5090729;28;20147;-63
2023/06/19 08:00:44;;;;;;;5.32;2.67;;;28.70;38.80;;;;;;5091681;28;20124;-63
2023/06/19 08:03:11;;;;;;;3.03;2.40;;;28.70;38.80;;;;;;5093769;28;20067;-64
2023/06/19 08:05:37;;;;;;;6.07;2.70;;;28.60;38.80;;;;;;5091153;28;20071;-63
2023/06/19 08:08:04;;;;;;;5.72;2.67;;;28.60;38.70;;;;;;5103685;28;20417;-64
2023/06/19 08:10:30;;;;;;;5.35;2.53;;;28.60;39.40;;;;;;5096947;28;20065;-65
2023/06/19 08:12:56;;;;;;;6.82;2.90;;;28.70;38.50;;;;;;5097735;28;20066;-63
2023/06/19 08:15:23;;;;;;;5.28;3.03;;;28.70;38.30;;;;;;5096802;28;21310;-63
2023/06/19 08:17:49;;;;;;;7.25;2.78;;;28.70;38.10;;;;;;5093645;28;20065;-62
2023/06/19 08:20:16;;;;;;;7.63;3.00;;;28.70;38.00;;;;;;5096647;28;20514;-62
2023/06/19 08:22:42;;;;;;;7.75;2.97;;;28.70;38.00;;;;;;5096201;28;20071;-63
2023/06/19 08:25:09;;;;;;;6.20;2.58;;;28.70;38.40;;;;;;5095793;28;20134;-63
2023/06/19 08:27:35;;;;;;;9.77;2.80;;;28.70;38.40;;;;;;5095487;28;20107;-63
2023/06/19 08:30:02;;;;;;;6.80;2.92;;;28.70;38.10;;;;;;5098481;28;20074;-64
2023/06/19 08:32:29;;;;;;;11.57;2.97;;;28.70;37.90;;;;;;5095708;28;20081;-63
2023/06/19 08:34:55;;;;;;;8.40;3.53;;;28.80;37.90;;;;;;5095415;28;20105;-63
2023/06/19 08:37:22;;;;;;;9.13;3.63;;;28.80;37.60;;;;;;5094969;28;20343;-63
2023/06/19 08:39:48;;;;;;;8.40;3.00;;;28.90;37.30;;;;;;5095256;28;20065;-63
2023/06/19 08:42:15;;;;;;;4.78;2.72;;;29.00;37.40;;;;;;5093430;28;20076;-64
2023/06/19 08:44:41;;;;;;;7.28;2.65;;;29.10;37.20;;;;;;5096691;28;20430;-64
2023/06/19 08:47:09;;;;;;;7.28;3.20;;;29.10;37.10;;;;;;5103188;28;20082;-63
2023/06/19 08:49:36;;;;;;;7.40;2.75;;;29.20;36.90;;;;;;5097377;28;20822;-62
2023/06/19 08:52:03;;;;;;;11.20;2.88;;;29.30;37.10;;;;;;5100617;28;20058;-61
2023/06/19 08:54:30;;;;;;;11.18;3.10;;;29.30;37.10;;;;;;5095529;28;20082;-64
2023/06/19 08:57:01;;;;;;;6.70;2.78;;;29.30;37.50;;;;;;5093988;28;20086;-63
2023/06/19 08:59:28;;;;;;;3.50;2.50;;;29.20;38.30;;;;;;5098455;28;20092;-65
2023/06/19 09:01:55;;;;;;;10.52;2.97;;;29.00;38.50;;;;;;5094590;28;20517;-64
2023/06/19 09:04:26;;;;;;;8.35;2.80;;;29.00;39.00;;;;;;5101145;28;20478;-64
2023/06/19 09:07:00;;;;;;;10.02;2.45;;;28.90;39.40;;;;;;5094618;28;20540;-64
2023/06/19 09:09:28;;;;;;;10.27;2.88;;;28.80;39.60;;;;;;5093997;28;20092;-64
2023/06/19 09:12:05;;;;;;;5.32;2.88;;;28.70;39.70;;;;;;5096284;28;20520;-66
2023/06/19 09:14:37;;;;;;;7.05;2.75;;;28.60;40.00;;;;;;5093979;28;20068;-63
2023/06/19 09:17:05;;;;;;;7.80;2.72;;;28.60;40.60;;;;;;5092448;28;20079;-63
2023/06/19 09:19:34;;;;;;;9.40;2.50;;;28.50;41.30;;;;;;5096707;28;20068;-64
2023/06/19 09:22:08;;;;;;;6.38;2.45;;;28.40;41.50;;;;;;5095361;28;20095;-64
2023/06/19 09:24:36;;;;;;;4.07;2.70;;;28.30;41.70;;;;;;5094170;28;20071;-65
2023/06/19 09:27:12;;;;;;;5.95;2.70;;;28.30;42.10;;;;;;5094043;28;20094;-63
2023/06/19 09:29:40;;;;;;;7.93;2.72;;;28.20;42.10;;;;;;5098324;28;20083;-64
2023/06/19 09:32:23;;;;;;;6.68;2.45;;;28.10;42.10;;;;;;5093277;28;20063;-64
2023/06/19 09:34:51;;;;;;;5.75;2.60;;;28.10;42.10;;;;;;5097049;28;20074;-63
2023/06/19 09:37:25;;;;;;;9.82;2.67;;;28.00;42.20;;;;;;5094294;28;20066;-63
2023/06/19 09:39:55;;;;;;;11.50;2.80;;;27.90;42.40;;;;;;5095192;28;20074;-64
2023/06/19 09:42:34;;;;;;;6.30;2.40;;;27.80;42.50;;;;;;5092601;28;20603;-64
2023/06/19 09:45:08;;;;;;;6.90;2.78;;;27.80;42.50;;;;;;5097122;28;20110;-64
2023/06/19 09:47:56;;;;;;;8.07;2.67;;;27.80;42.50;;;;;;5093480;28;20081;-64
2023/06/19 09:50:27;;;;;;;8.27;2.53;;;27.80;42.50;;;;;;5096923;28;20068;-64
2023/06/19 09:52:55;;;;;;;8.20;2.70;;;27.70;42.40;;;;;;5094225;28;20128;-64
2023/06/19 09:55:24;;;;;;;5.38;2.63;;;27.70;42.70;;;;;;5097294;28;20087;-65
2023/06/19 09:57:53;;;;;;;5.28;2.50;;;27.70;42.40;;;;;;5093683;28;20084;-64
2023/06/19 10:00:22;;;;;;;5.07;2.55;;;27.60;42.40;;;;;;5091978;28;20090;-64
2023/06/19 10:02:50;;;;;;;7.43;2.47;;;27.60;42.50;;;;;;5096805;28;20077;-63
2023/06/19 10:05:18;;;;;;;5.53;2.53;;;27.60;42.80;;;;;;5093580;28;20190;-63
2023/06/19 10:07:46;;;;;;;7.70;2.83;;;27.60;42.90;;;;;;5096510;28;20122;-64
2023/06/19 10:10:24;;;;;;;7.40;2.38;;;27.60;42.80;;;;;;5097802;28;20084;-64
2023/06/19 10:12:52;;;;;;;9.23;3.30;;;27.40;42.90;;;;;;5093708;28;20065;-65
2023/06/19 10:15:27;;;;;;;10.30;2.95;;;27.40;43.10;;;;;;5093784;28;20385;-65
2023/06/19 10:18:05;;;;;;;8.32;3.17;;;27.30;43.20;;;;;;5091668;28;20567;-63
2023/06/19 10:20:38;;;;;;;13.48;3.42;;;27.20;42.60;;;;;;5098404;28;20078;-64
2023/06/19 10:23:10;;;;;;;7.95;3.47;;;27.30;42.50;;;;;;5092925;28;20066;-65
2023/06/19 10:25:40;;;;;;;6.93;3.20;;;27.40;42.20;;;;;;5093595;28;20097;-62
2023/06/19 10:28:23;;;;;;;6.63;2.97;;;27.40;42.00;;;;;;5095536;28;20102;-62
2023/06/19 10:30:54;;;;;;;13.95;3.70;;;27.40;41.80;;;;;;5096007;28;20065;-62
2023/06/19 10:33:23;;;;;;;13.30;3.60;;;27.40;42.20;;;;;;5097725;28;20072;-63
2023/06/19 10:35:50;;;;;;;7.22;3.28;;;27.40;42.20;;;;;;5092127;28;20076;-65
2023/06/19 10:38:17;;;;;;;7.03;3.13;;;27.40;42.30;;;;;;5092586;28;20065;-63
2023/06/19 10:40:45;;;;;;;8.05;3.17;;;27.30;42.10;;;;;;5093721;28;20821;-64
2023/06/19 10:43:12;;;;;;;6.97;2.80;;;27.30;42.20;;;;;;5093058;28;20123;-64
2023/06/19 10:45:39;;;;;;;6.78;2.63;;;27.30;42.40;;;;;;5100004;28;20079;-64
2023/06/19 10:48:06;;;;;;;13.20;3.10;;;27.30;42.20;;;;;;5093311;28;20442;-63
2023/06/19 10:50:38;;;;;;;8.65;3.05;;;27.30;42.40;;;;;;5094156;28;20074;-63
2023/06/19 10:53:05;;;;;;;10.55;2.70;;;27.30;42.00;;;;;;5095088;28;20083;-64
2023/06/19 10:55:31;;;;;;;9.40;3.10;;;27.30;42.40;;;;;;5091097;28;20067;-64
2023/06/19 10:57:57;;;;;;;8.95;2.92;;;27.20;42.30;;;;;;5092865;28;20441;-65
2023/06/19 11:00:29;;;;;;;7.68;2.92;;;27.10;42.40;;;;;;5092884;28;20190;-64
2023/06/19 11:02:56;;;;;;;6.13;2.97;;;27.00;42.50;;;;;;5096431;28;20078;-64
2023/06/19 11:05:25;;;;;;;6.32;2.85;;;27.00;43.40;;;;;;5093956;28;20090;-65
2023/06/19 11:07:56;;;;;;;5.63;2.75;;;26.90;43.40;;;;;;5092615;28;20087;-64
2023/06/19 11:10:27;;;;;;;9.88;3.13;;;26.80;43.70;;;;;;5093980;28;20485;-63
2023/06/19 11:12:56;;;;;;;6.07;2.45;;;26.80;43.70;;;;;;5095688;28;20109;-64
2023/06/19 11:15:32;;;;;;;12.80;2.90;;;26.80;43.80;;;;;;5090602;28;20077;-64
2023/06/19 11:17:59;;;;;;;;;;;26.70;43.90;;;;;;5093663;28;20173;-63
2023/06/19 11:20:26;;;;;;;8.38;2.78;;;26.70;44.00;;;;;;5101427;28;20139;-66
2023/06/19 11:23:01;;;;;;;9.13;3.08;;;26.70;44.10;;;;;;5094573;28;20446;-64
2023/06/19 11:25:38;;;;;;;12.35;3.05;;;26.70;44.50;;;;;;5093314;28;20096;-64
2023/06/19 11:28:10;;;;;;;6.60;2.88;;;26.60;44.40;;;;;;5091471;28;20581;-63
2023/06/19 11:30:36;;;;;;;6.00;3.00;;;26.50;44.40;;;;;;5095447;28;20123;-65
2023/06/19 11:33:03;;;;;;;12.25;3.22;;;26.50;44.40;;;;;;5093399;28;20077;-63
2023/06/19 11:35:36;;;;;;;10.93;3.22;;;26.40;44.30;;;;;;5092095;28;20087;-64
2023/06/19 11:38:03;;;;;;;9.38;3.13;;;26.40;44.40;;;;;;5097797;28;20384;-64
2023/06/19 11:40:39;;;;;;;7.80;2.97;;;26.40;44.30;;;;;;5092332;28;20126;-63
2023/06/19 11:43:05;;;;;;;;;;;26.40;44.40;;;;;;5093326;28;20588;-65
2023/06/19 11:45:32;;;;;;;17.75;4.40;;;26.30;44.70;;;;;;5094031;28;19955;-64
2023/06/19 11:47:58;;;;;;;17.65;5.55;;;26.20;44.70;;;;;;5091871;28;20454;-64
2023/06/19 11:50:28;;;;;;;34.38;10.35;;;26.30;44.40;;;;;;5096326;28;20157;-65
2023/06/19 11:52:55;;;;;;;37.83;10.30;;;26.10;43.40;;;;;;5092219;28;20436;-65
2023/06/19 11:55:21;;;;;;;27.88;8.93;;;26.10;43.80;;;;;;5092675;28;20086;-65
2023/06/19 11:57:48;;;;;;;41.42;10.23;;;26.00;44.00;;;;;;5094689;28;20110;-66
2023/06/19 12:00:16;;;;;;;32.65;10.30;;;26.00;43.60;;;;;;5090857;28;20070;-67
2023/06/19 12:02:46;;;;;;;48.15;14.00;;;26.00;43.80;;;;;;5095864;28;20545;-65
2023/06/19 12:05:14;;;;;;;43.63;14.30;;;26.00;43.60;;;;;;5091860;28;20562;-64
2023/06/19 12:07:40;;;;;;;43.90;13.48;;;25.90;43.30;;;;;;5089899;28;20083;-64
2023/06/19 12:10:09;;;;;;;45.08;13.95;;;25.90;43.50;;;;;;5090070;28;20537;-64
2023/06/19 12:12:38;;;;;;;43.22;15.27;;;25.80;43.40;;;;;;5091338;28;20665;-65
2023/06/19 12:15:06;;;;;;;49.53;14.63;;;25.70;43.40;;;;;;5090072;28;20069;-64
2023/06/19 12:17:32;;;;;;;40.25;12.57;;;25.70;43.50;;;;;;5090915;28;20074;-65
2023/06/19 12:19:59;;;;;;;43.67;12.55;;;25.50;43.70;;;;;;5092504;28;20996;-64
2023/06/19 12:22:27;;;;;;;45.33;11.70;;;25.50;45.30;;;;;;5095024;28;20082;-65
2023/06/19 12:24:54;;;;;;;43.42;11.98;;;25.50;45.10;;;;;;5091523;28;20178;-64
2023/06/19 12:27:20;;;;;;;45.50;11.68;;;25.50;44.50;;;;;;5093821;28;20508;-65
2023/06/19 12:29:47;;;;;;;48.08;11.30;;;25.50;44.10;;;;;;5102597;28;20075;-64
2023/06/19 12:32:13;;;;;;;43.35;11.57;;;25.40;44.00;;;;;;5092505;28;20094;-64
2023/06/19 12:34:40;;;;;;;43.58;11.00;;;25.40;44.10;;;;;;5095381;28;20068;-65
2023/06/19 12:37:06;;;;;;;38.88;11.02;;;25.40;43.90;;;;;;5094469;28;20062;-65
2023/06/19 12:39:33;;;;;;;39.10;10.60;;;25.40;44.70;;;;;;5092298;28;20094;-65
2023/06/19 12:41:59;;;;;;;41.90;11.65;;;25.30;44.60;;;;;;5076285;28;20068;-63
2023/06/19 12:44:26;;;;;;;41.58;10.07;;;25.20;44.70;;;;;;5091502;28;20092;-64